Time;durP1;ratioP1;P1;durP2;ratioP2;P2;SDS_P1;SDS_P2;PMS_P1;PMS_P2;Temp;Humidity;BMP_temperature;BMP_pressure;BME280_temperature;BME280_humidity;BME280_pressure;Samples;Min_cycle;Max_cycle;Signal;HPM_P1;HPM_P2
2023/02/21 02:14:14;;;;;;;4.20;3.30;;;11.40;1.00;;;;;;5061141;28;20527;-58
2023/02/21 02:16:44;;;;;;;4.60;2.80;;;11.50;1.00;;;;;;5051653;28;20524;-57
2023/02/21 02:19:26;;;;;;;5.00;3.13;;;11.60;1.00;;;;;;5057534;28;20470;-58
2023/02/21 02:22:12;;;;;;;3.10;2.80;;;11.70;1.00;;;;;;5058085;28;20446;-58
2023/02/21 02:24:46;;;;;;;2.67;2.40;;;11.60;1.00;;;;;;5065577;28;20520;-57
2023/02/21 02:27:36;;;;;;;3.50;2.80;;;11.50;1.00;;;;;;5053020;28;20440;-57
2023/02/21 02:30:47;;;;;;;4.37;3.00;;;11.60;1.00;;;;;;5057643;28;21064;-56
2023/02/21 02:33:25;;;;;;;4.80;3.70;;;11.50;1.00;;;;;;5048272;28;20457;-57
2023/02/21 02:36:13;;;;;;;2.83;2.60;;;11.50;1.00;;;;;;5049260;28;20458;-56
2023/02/21 02:38:58;;;;;;;2.93;2.20;;;11.50;1.00;;;;;;5053694;28;20451;-58
2023/02/21 02:41:52;;;;;;;3.00;2.70;;;11.60;1.00;;;;;;5050954;28;20413;-56
2023/02/21 02:44:25;;;;;;;3.17;2.40;;;11.70;1.00;;;;;;5057521;28;20993;-58
2023/02/21 02:46:53;;;;;;;3.57;2.40;;;11.60;1.00;;;;;;5049501;28;20429;-58
2023/02/21 02:49:25;;;;;;;2.60;2.20;;;11.60;1.00;;;;;;5049031;28;20425;-56
2023/02/21 02:51:51;;;;;;;3.03;2.60;;;11.70;1.00;;;;;;5052618;28;20443;-57
2023/02/21 02:54:17;;;;;;;2.50;2.30;;;11.50;1.00;;;;;;5051215;28;20466;-56
2023/02/21 02:56:46;;;;;;;3.97;2.90;;;11.60;1.00;;;;;;5054183;28;20792;-57
2023/02/21 02:59:26;;;;;;;6.10;3.20;;;11.60;1.00;;;;;;5056846;28;20417;-57
2023/02/21 03:02:10;;;;;;;3.60;2.60;;;11.60;1.00;;;;;;5059553;28;20443;-57
2023/02/21 03:05:00;;;;;;;4.33;2.30;;;11.60;1.00;;;;;;5057829;28;20442;-57
2023/02/21 03:07:53;;;;;;;5.30;2.80;;;11.60;1.00;;;;;;5059007;28;20509;-58
2023/02/21 03:10:49;;;;;;;2.87;2.57;;;11.50;1.00;;;;;;5053006;28;20452;-56
2023/02/21 03:13:25;;;;;;;3.37;2.37;;;11.60;1.00;;;;;;5061376;28;20420;-57
2023/02/21 03:15:56;;;;;;;5.00;3.10;;;11.50;1.00;;;;;;5053803;28;20801;-57
2023/02/21 03:18:41;;;;;;;3.00;2.70;;;11.60;1.00;;;;;;5051036;28;20629;-56
2023/02/21 03:21:12;;;;;;;3.23;2.70;;;11.60;1.00;;;;;;5056648;28;20425;-58
2023/02/21 03:23:40;;;;;;;3.40;2.57;;;11.60;1.00;;;;;;5048932;28;20458;-58
2023/02/21 03:26:09;;;;;;;4.00;3.10;;;11.60;1.00;;;;;;5056034;28;20450;-58
2023/02/21 03:28:36;;;;;;;4.37;3.47;;;11.60;1.00;;;;;;5054078;28;20424;-57
2023/02/21 03:31:05;;;;;;;3.80;3.10;;;11.50;1.00;;;;;;5057342;28;20438;-57
2023/02/21 03:33:32;;;;;;;3.80;3.30;;;11.50;1.00;;;;;;5057270;28;20440;-56
2023/02/21 03:36:01;;;;;;;5.60;2.93;;;11.60;1.00;;;;;;5060835;28;20448;-58
2023/02/21 03:38:28;;;;;;;3.90;3.07;;;11.60;1.00;;;;;;5059633;28;20908;-56
2023/02/21 03:40:54;;;;;;;3.93;3.30;;;11.60;1.00;;;;;;5050126;28;20940;-57
2023/02/21 03:43:20;;;;;;;2.63;2.43;;;11.60;1.00;;;;;;5058979;28;20492;-56
2023/02/21 03:45:45;;;;;;;3.00;2.63;;;11.70;1.00;;;;;;5054842;28;20550;-56
2023/02/21 03:48:11;;;;;;;3.90;3.00;;;11.80;1.00;;;;;;5055469;28;20672;-56
2023/02/21 03:50:36;;;;;;;3.10;2.80;;;11.70;1.00;;;;;;5053712;28;20223;-57
2023/02/21 03:53:03;;;;;;;5.60;3.27;;;11.70;1.00;;;;;;5052175;28;20707;-57
2023/02/21 03:55:28;;;;;;;4.67;2.97;;;11.80;1.00;;;;;;5052331;28;20295;-57
2023/02/21 03:57:56;;;;;;;4.10;2.93;;;11.80;1.00;;;;;;5055369;28;21027;-56
2023/02/21 04:00:22;;;;;;;4.87;4.17;;;11.70;1.00;;;;;;5053276;28;20250;-57
2023/02/21 04:02:47;;;;;;;3.30;2.57;;;11.70;1.00;;;;;;5056192;28;20442;-56
2023/02/21 04:05:13;;;;;;;5.63;3.20;;;11.70;1.00;;;;;;5054314;28;20672;-58
2023/02/21 04:07:39;;;;;;;4.97;3.60;;;11.70;1.00;;;;;;5057491;28;20287;-58
2023/02/21 04:10:05;;;;;;;4.17;3.03;;;11.80;1.00;;;;;;5052932;28;20542;-57
2023/02/21 04:12:30;;;;;;;5.27;3.60;;;11.80;1.00;;;;;;5053685;28;20283;-58
2023/02/21 04:14:57;;;;;;;4.57;3.80;;;11.80;1.00;;;;;;5049811;28;20994;-57
2023/02/21 04:17:23;;;;;;;4.07;3.67;;;11.80;1.00;;;;;;5052370;28;20725;-57
2023/02/21 04:19:49;;;;;;;5.87;3.80;;;11.80;1.00;;;;;;5055103;28;20417;-57
2023/02/21 04:22:15;;;;;;;3.27;2.87;;;11.70;1.00;;;;;;5054567;28;20798;-58
2023/02/21 04:24:41;;;;;;;5.20;3.60;;;11.70;1.00;;;;;;5054475;28;20442;-57
2023/02/21 04:27:07;;;;;;;5.00;3.87;;;11.70;1.00;;;;;;5058901;28;20214;-56
2023/02/21 04:29:33;;;;;;;5.53;4.00;;;11.70;1.00;;;;;;5053232;28;20194;-57
2023/02/21 04:31:58;;;;;;;7.10;3.80;;;11.70;1.00;;;;;;5050217;28;20427;-56
2023/02/21 04:34:24;;;;;;;4.23;3.57;;;11.70;1.00;;;;;;5048835;28;20193;-56
2023/02/21 04:36:50;;;;;;;4.30;3.60;;;11.70;1.00;;;;;;5047133;28;20265;-56
2023/02/21 04:39:15;;;;;;;5.70;3.93;;;11.70;1.00;;;;;;5048399;28;20189;-57
2023/02/21 04:41:41;;;;;;;5.30;4.17;;;11.70;1.00;;;;;;5052506;28;20184;-56
2023/02/21 04:44:07;;;;;;;6.33;4.97;;;11.60;1.00;;;;;;5047687;28;20219;-58
2023/02/21 04:46:33;;;;;;;6.07;4.17;;;11.60;1.00;;;;;;5045715;28;20192;-57
2023/02/21 04:48:59;;;;;;;6.93;5.10;;;11.70;1.00;;;;;;5044188;28;20639;-57
2023/02/21 04:51:25;;;;;;;6.47;5.20;;;11.60;1.00;;;;;;5047638;28;20937;-58
2023/02/21 04:53:52;;;;;;;8.10;4.37;;;11.60;1.00;;;;;;5048987;28;20452;-57
2023/02/21 04:56:21;;;;;;;5.50;4.30;;;11.60;1.00;;;;;;5052517;28;20185;-57
2023/02/21 04:58:47;;;;;;;7.37;5.17;;;11.60;1.00;;;;;;5050350;28;20446;-57
2023/02/21 05:01:14;;;;;;;8.60;5.53;;;11.70;1.00;;;;;;5055536;28;20447;-57
2023/02/21 05:03:40;;;;;;;7.67;4.93;;;11.70;1.00;;;;;;5063687;28;20446;-57
2023/02/21 05:06:06;;;;;;;6.80;5.43;;;11.70;1.00;;;;;;5062963;28;20416;-56
2023/02/21 05:08:31;;;;;;;7.10;5.30;;;11.60;1.00;;;;;;5055759;28;20199;-57
2023/02/21 05:10:57;;;;;;;8.13;5.30;;;11.70;1.00;;;;;;5057933;28;20421;-57
2023/02/21 05:13:22;;;;;;;6.10;5.13;;;11.70;1.00;;;;;;5057465;28;20195;-57
2023/02/21 05:15:48;;;;;;;6.90;5.13;;;11.60;1.00;;;;;;5057091;28;20311;-57
2023/02/21 05:18:22;;;;;;;6.07;4.90;;;11.60;1.00;;;;;;5056646;28;20295;-58
2023/02/21 05:20:50;;;;;;;8.20;5.40;;;11.60;1.00;;;;;;5059740;28;20511;-56
2023/02/21 05:23:17;;;;;;;6.43;5.40;;;11.60;1.00;;;;;;5047990;28;20732;-55
2023/02/21 05:25:43;;;;;;;8.50;5.93;;;11.70;1.00;;;;;;5054099;28;20453;-57
2023/02/21 05:28:09;;;;;;;8.97;5.57;;;11.70;1.00;;;;;;5059991;28;20784;-56
2023/02/21 05:30:35;;;;;;;7.53;5.47;;;11.70;1.00;;;;;;5061650;28;20459;-56
2023/02/21 05:33:00;;;;;;;6.97;5.00;;;11.80;1.00;;;;;;5057255;28;20245;-56
2023/02/21 05:35:26;;;;;;;7.43;5.43;;;11.80;1.00;;;;;;5053016;28;20240;-55
2023/02/21 05:37:52;;;;;;;5.20;4.70;;;11.80;1.00;;;;;;5062215;28;20205;-57
2023/02/21 05:40:17;;;;;;;9.73;5.67;;;11.80;1.00;;;;;;5058953;28;20282;-58
2023/02/21 05:42:43;;;;;;;6.30;4.67;;;11.70;1.00;;;;;;5061304;28;20271;-57
2023/02/21 05:45:10;;;;;;;6.70;5.10;;;11.80;1.00;;;;;;5061348;28;20180;-57
2023/02/21 05:47:36;;;;;;;5.77;5.17;;;11.80;1.00;;;;;;5048662;28;20196;-57
2023/02/21 05:50:02;;;;;;;6.50;4.83;;;11.80;1.00;;;;;;5045148;28;20421;-58
2023/02/21 05:52:28;;;;;;;6.80;5.07;;;11.80;1.00;;;;;;5045965;28;20433;-57
2023/02/21 05:54:53;;;;;;;7.33;6.13;;;11.80;1.00;;;;;;5044705;28;20482;-57
2023/02/21 05:57:19;;;;;;;7.83;5.90;;;11.80;1.00;;;;;;5045130;28;20669;-58
2023/02/21 05:59:47;;;;;;;10.50;6.07;;;11.80;1.00;;;;;;5045211;28;20271;-58
2023/02/21 06:02:13;;;;;;;6.90;5.73;;;11.90;1.00;;;;;;5048854;28;20475;-58
2023/02/21 06:04:39;;;;;;;7.67;5.70;;;11.80;1.00;;;;;;5044888;28;20447;-57
2023/02/21 06:07:05;;;;;;;8.07;5.87;;;11.70;1.00;;;;;;5047614;28;20959;-58
2023/02/21 06:09:30;;;;;;;7.20;5.80;;;11.70;1.00;;;;;;5047142;28;20673;-58
2023/02/21 06:11:56;;;;;;;7.33;5.20;;;11.70;1.00;;;;;;5043468;28;20541;-59
2023/02/21 06:14:22;;;;;;;6.37;5.53;;;11.70;1.00;;;;;;5048978;28;20228;-58
2023/02/21 06:16:48;;;;;;;7.80;5.70;;;11.70;1.00;;;;;;5053581;28;20234;-59
2023/02/21 06:19:15;;;;;;;7.87;6.70;;;11.80;1.00;;;;;;5042334;28;20983;-58
2023/02/21 06:21:42;;;;;;;10.53;6.40;;;11.70;1.00;;;;;;5038062;28;20188;-58
2023/02/21 06:24:09;;;;;;;8.63;6.40;;;11.70;1.00;;;;;;5049881;28;20474;-58
2023/02/21 06:26:36;;;;;;;7.43;5.27;;;11.70;1.00;;;;;;5047601;28;20432;-58
2023/02/21 06:29:03;;;;;;;6.53;5.60;;;11.70;1.00;;;;;;5048288;28;20434;-58
2023/02/21 06:31:29;;;;;;;9.27;6.67;;;11.60;1.00;;;;;;5042506;28;20462;-57
2023/02/21 06:33:55;;;;;;;9.70;7.40;;;11.60;1.00;;;;;;5046172;28;20418;-58
2023/02/21 06:36:24;;;;;;;6.47;5.77;;;11.60;1.00;;;;;;5048209;28;20419;-60
2023/02/21 06:38:51;;;;;;;8.03;5.90;;;11.70;1.00;;;;;;5048546;28;20626;-59
2023/02/21 06:41:23;;;;;;;7.60;5.53;;;11.80;1.00;;;;;;5048705;28;21010;-59
2023/02/21 06:43:50;;;;;;;8.20;5.97;;;11.90;1.00;;;;;;5048040;28;20464;-58
2023/02/21 06:46:18;;;;;;;8.63;6.50;;;11.90;1.00;;;;;;5049570;28;20441;-58
2023/02/21 06:48:44;;;;;;;8.30;5.83;;;11.80;1.00;;;;;;5045398;28;20872;-59
2023/02/21 06:51:10;;;;;;;8.23;6.20;;;11.80;1.00;;;;;;5049475;28;20829;-59
2023/02/21 06:53:36;;;;;;;9.93;7.00;;;11.90;1.00;;;;;;5047918;28;20434;-60
2023/02/21 06:56:03;;;;;;;9.00;6.63;;;11.80;1.00;;;;;;5046597;28;20192;-59
2023/02/21 06:58:29;;;;;;;7.40;5.40;;;11.80;1.00;;;;;;5045891;28;20485;-58
2023/02/21 07:00:54;;;;;;;7.40;6.00;;;11.80;1.00;;;;;;5047912;28;20447;-59
2023/02/21 07:03:20;;;;;;;9.40;6.23;;;11.70;1.00;;;;;;5049853;28;20219;-58
2023/02/21 07:05:46;;;;;;;9.23;7.10;;;11.80;1.00;;;;;;5048850;28;20259;-57
2023/02/21 07:08:11;;;;;;;9.67;6.20;;;11.90;1.00;;;;;;5049350;28;20295;-59
2023/02/21 07:10:37;;;;;;;11.27;6.53;;;11.90;1.00;;;;;;5048604;28;20176;-59
2023/02/21 07:13:02;;;;;;;9.40;6.97;;;11.90;1.00;;;;;;5041989;28;20247;-59
2023/02/21 07:15:28;;;;;;;9.70;6.17;;;11.80;1.00;;;;;;5045574;28;20202;-58
2023/02/21 07:17:54;;;;;;;7.90;5.83;;;11.90;1.00;;;;;;5046877;28;20253;-58
2023/02/21 07:20:19;;;;;;;11.20;6.67;;;11.90;1.00;;;;;;5047937;28;20768;-57
2023/02/21 07:22:45;;;;;;;10.00;6.77;;;11.90;1.00;;;;;;5045898;28;20185;-58
2023/02/21 07:25:20;;;;;;;8.97;6.40;;;11.90;1.00;;;;;;5048642;28;20172;-58
2023/02/21 07:27:47;;;;;;;8.83;6.10;;;11.90;1.00;;;;;;5048132;28;21163;-59
2023/02/21 07:30:12;;;;;;;8.13;5.97;;;11.80;1.00;;;;;;5049025;28;20576;-61
2023/02/21 07:32:38;;;;;;;10.97;7.70;;;11.90;1.00;;;;;;5049243;28;20508;-58
2023/02/21 07:35:04;;;;;;;10.67;7.27;;;11.90;1.00;;;;;;5053363;28;20212;-57
2023/02/21 07:37:30;;;;;;;9.27;6.63;;;12.00;1.00;;;;;;5046159;28;20461;-57
2023/02/21 07:39:56;;;;;;;10.10;6.93;;;12.00;1.00;;;;;;5051783;28;20418;-58
2023/02/21 07:42:21;;;;;;;9.87;7.07;;;11.90;1.00;;;;;;5046989;28;20185;-59
2023/02/21 07:44:47;;;;;;;12.63;8.63;;;11.70;1.00;;;;;;5045211;28;20267;-59
2023/02/21 07:47:13;;;;;;;9.43;6.83;;;12.00;1.00;;;;;;5047755;28;20657;-57
2023/02/21 07:49:40;;;;;;;8.63;7.07;;;12.00;1.00;;;;;;5046733;28;20463;-58
2023/02/21 07:52:06;;;;;;;8.60;6.63;;;12.00;1.00;;;;;;5058018;28;20518;-57
2023/02/21 07:54:32;;;;;;;12.17;8.33;;;12.00;1.00;;;;;;5047972;28;20478;-58
2023/02/21 07:56:57;;;;;;;9.43;6.90;;;11.90;1.00;;;;;;5048823;28;20441;-58
2023/02/21 07:59:23;;;;;;;10.47;8.07;;;11.90;1.00;;;;;;5044614;28;20326;-59
2023/02/21 08:01:49;;;;;;;11.67;8.00;;;11.90;1.00;;;;;;5042621;28;20177;-58
2023/02/21 08:04:19;;;;;;;12.53;8.40;;;11.90;1.00;;;;;;5046645;28;20196;-58
2023/02/21 08:06:46;;;;;;;11.00;8.83;;;12.00;1.00;;;;;;5042271;28;20687;-59
2023/02/21 08:09:11;;;;;;;10.13;7.50;;;12.00;1.00;;;;;;5045738;28;20487;-59
2023/02/21 08:11:39;;;;;;;12.43;8.43;;;11.90;1.00;;;;;;5046173;28;20544;-59
2023/02/21 08:14:05;;;;;;;10.20;7.37;;;11.90;1.00;;;;;;5048433;28;20246;-59
2023/02/21 08:16:30;;;;;;;13.37;9.40;;;12.00;1.00;;;;;;5046457;28;20919;-60
2023/02/21 08:18:56;;;;;;;9.27;7.60;;;12.10;1.00;;;;;;5045841;28;20187;-58
2023/02/21 08:21:22;;;;;;;11.27;8.73;;;12.20;1.00;;;;;;5040912;28;20681;-59
2023/02/21 08:23:50;;;;;;;11.77;8.93;;;12.20;1.00;;;;;;5044843;28;20262;-58
2023/02/21 08:26:16;;;;;;;10.40;8.53;;;12.00;1.00;;;;;;5047479;28;20196;-59
2023/02/21 08:28:41;;;;;;;15.53;7.90;;;12.00;1.00;;;;;;5047297;28;20406;-57
2023/02/21 08:31:07;;;;;;;10.20;7.87;;;12.00;1.00;;;;;;5043823;28;20203;-58
2023/02/21 08:33:33;;;;;;;13.67;8.30;;;11.90;1.00;;;;;;5046331;28;20184;-57
2023/02/21 08:35:58;;;;;;;10.60;8.07;;;11.90;1.00;;;;;;5049735;28;20307;-58
2023/02/21 08:38:24;;;;;;;14.30;9.17;;;11.80;1.00;;;;;;5045893;28;20213;-59
2023/02/21 08:40:50;;;;;;;11.57;8.57;;;11.90;1.00;;;;;;5049916;28;20227;-59
2023/02/21 08:43:16;;;;;;;10.90;7.97;;;12.00;1.00;;;;;;5051925;28;20189;-58
2023/02/21 08:45:41;;;;;;;12.20;8.70;;;11.90;1.00;;;;;;5050280;28;20620;-58
2023/02/21 08:48:07;;;;;;;12.30;7.90;;;12.00;1.00;;;;;;5059712;28;20196;-59
2023/02/21 08:50:32;;;;;;;12.23;9.20;;;12.00;1.00;;;;;;5049885;28;20645;-58
2023/02/21 08:52:58;;;;;;;11.00;8.10;;;12.10;1.00;;;;;;5053752;28;20302;-59
2023/02/21 08:55:24;;;;;;;10.80;7.90;;;12.00;1.00;;;;;;5047823;28;20227;-58
2023/02/21 08:57:51;;;;;;;10.27;6.80;;;12.00;1.00;;;;;;5048076;28;20270;-57
2023/02/21 09:00:22;;;;;;;10.80;7.50;;;12.00;1.00;;;;;;5045993;28;20275;-59
2023/02/21 09:02:51;;;;;;;12.03;8.33;;;12.00;1.00;;;;;;5052732;28;20785;-59
2023/02/21 09:05:26;;;;;;;9.80;7.97;;;12.10;1.00;;;;;;5049516;28;20485;-58
2023/02/21 09:07:57;;;;;;;9.43;7.00;;;12.20;1.00;;;;;;5051178;28;20929;-60
2023/02/21 09:10:23;;;;;;;10.50;7.03;;;12.20;1.00;;;;;;5051478;28;20508;-58
2023/02/21 09:12:49;;;;;;;10.50;6.87;;;12.30;1.00;;;;;;5050759;28;20803;-58
2023/02/21 09:15:15;;;;;;;13.00;8.10;;;12.20;1.00;;;;;;5051922;28;20432;-58
2023/02/21 09:17:41;;;;;;;9.83;7.63;;;12.20;1.00;;;;;;5051067;28;20218;-59
2023/02/21 09:20:09;;;;;;;8.00;6.40;;;12.20;1.00;;;;;;5049959;28;20534;-58
2023/02/21 09:22:35;;;;;;;14.83;7.27;;;12.20;1.00;;;;;;5047075;28;20558;-59
2023/02/21 09:25:02;;;;;;;10.43;6.37;;;12.20;1.00;;;;;;5049654;28;20435;-58
2023/02/21 09:27:36;;;;;;;7.50;5.60;;;12.20;1.00;;;;;;5048264;28;20451;-59
2023/02/21 09:30:08;;;;;;;10.47;7.57;;;12.30;1.00;;;;;;5047598;28;20442;-58
2023/02/21 09:32:34;;;;;;;9.57;6.20;;;12.30;1.00;;;;;;5051039;28;20432;-59
2023/02/21 09:35:00;;;;;;;7.53;6.60;;;12.50;1.00;;;;;;5047636;28;20426;-58
2023/02/21 09:37:25;;;;;;;9.13;7.43;;;12.60;1.00;;;;;;5045769;28;20303;-58
2023/02/21 09:39:52;;;;;;;13.97;9.10;;;12.60;1.00;;;;;;5047589;28;20535;-58
2023/02/21 09:42:21;;;;;;;10.00;7.83;;;12.50;1.00;;;;;;5050801;28;20430;-58
2023/02/21 09:44:47;;;;;;;9.17;7.13;;;12.50;1.00;;;;;;5048115;28;20448;-62
2023/02/21 09:47:26;;;;;;;11.77;7.50;;;12.50;1.00;;;;;;5050938;28;20441;-59
2023/02/21 09:49:59;;;;;;;10.30;7.60;;;12.40;1.00;;;;;;5046167;28;21001;-57
2023/02/21 09:52:31;;;;;;;10.17;7.47;;;12.40;1.00;;;;;;5059467;28;20448;-58
2023/02/21 09:55:02;;;;;;;7.90;6.33;;;12.40;1.00;;;;;;5067013;28;20984;-58
2023/02/21 09:57:27;;;;;;;10.00;8.13;;;12.40;1.00;;;;;;5048398;28;21051;-59
2023/02/21 09:59:53;;;;;;;10.40;6.90;;;12.50;1.00;;;;;;5046536;28;20517;-58
2023/02/21 10:02:54;;;;;;;9.27;7.20;;;12.50;1.00;;;;;;5053655;28;20233;-58
2023/02/21 10:05:43;;;;;;;8.77;6.23;;;12.50;1.00;;;;;;5012493;28;20550;-59
2023/02/21 10:08:47;;;;;;;10.90;6.70;;;12.60;1.00;;;;;;5060213;28;20556;-59
2023/02/21 10:11:26;;;;;;;9.70;7.17;;;12.70;1.00;;;;;;5068344;28;20537;-58
2023/02/21 10:14:04;;;;;;;8.50;6.30;;;12.60;1.00;;;;;;5056497;28;20446;-58
2023/02/21 10:16:47;;;;;;;8.47;6.20;;;12.50;1.00;;;;;;5048576;28;21021;-58
2023/02/21 10:19:30;;;;;;;10.10;6.97;;;12.60;1.00;;;;;;5050245;28;21004;-59
2023/02/21 10:21:57;;;;;;;9.27;6.60;;;12.80;1.00;;;;;;5046952;28;20447;-58
2023/02/21 10:24:24;;;;;;;8.43;6.70;;;12.80;1.00;;;;;;5050204;28;20534;-59
2023/02/21 10:27:04;;;;;;;8.30;7.00;;;12.80;1.00;;;;;;5052517;28;20459;-59
2023/02/21 10:29:57;;;;;;;11.03;6.47;;;12.60;1.00;;;;;;5057809;28;20425;-58
2023/02/21 10:32:24;;;;;;;8.67;6.13;;;12.70;1.00;;;;;;5048769;28;20504;-58
2023/02/21 10:34:51;;;;;;;8.03;5.97;;;12.80;1.00;;;;;;5055627;28;20454;-59
2023/02/21 10:37:19;;;;;;;10.30;6.30;;;12.80;1.00;;;;;;5047754;28;20544;-58
2023/02/21 10:39:51;;;;;;;7.70;6.17;;;12.80;1.00;;;;;;5048144;28;20451;-59
2023/02/21 10:42:40;;;;;;;8.30;6.73;;;12.90;1.00;;;;;;5049887;28;20394;-59
2023/02/21 10:45:08;;;;;;;9.20;6.47;;;12.80;1.00;;;;;;5051636;28;20443;-59
2023/02/21 10:47:59;;;;;;;9.27;7.17;;;12.70;1.00;;;;;;5045245;28;20603;-58
2023/02/21 10:50:39;;;;;;;9.57;6.73;;;12.70;1.00;;;;;;5046897;28;20425;-58
2023/02/21 10:53:05;;;;;;;7.43;5.87;;;12.70;1.00;;;;;;5046543;28;20417;-58
2023/02/21 10:55:31;;;;;;;8.00;5.60;;;12.70;1.00;;;;;;5047458;28;20453;-57
2023/02/21 10:58:05;;;;;;;7.83;5.80;;;12.70;1.00;;;;;;5047278;28;20478;-58
2023/02/21 11:00:35;;;;;;;7.63;6.17;;;12.70;1.00;;;;;;5044938;28;20611;-59
2023/02/21 11:03:26;;;;;;;7.63;5.53;;;12.70;1.00;;;;;;5059069;28;20463;-56
2023/02/21 11:05:56;;;;;;;6.57;5.87;;;12.80;1.00;;;;;;5054762;28;20534;-56
2023/02/21 11:08:39;;;;;;;9.60;6.67;;;12.80;1.00;;;;;;5065188;28;20818;-58
2023/02/21 11:11:05;;;;;;;8.37;5.80;;;12.80;1.00;;;;;;5053703;28;20426;-58
2023/02/21 11:13:32;;;;;;;8.70;6.67;;;12.70;1.00;;;;;;5053160;28;20430;-56
2023/02/21 11:16:10;;;;;;;9.07;6.90;;;12.70;1.00;;;;;;5054872;28;20428;-58
2023/02/21 11:18:36;;;;;;;9.00;7.10;;;12.70;1.00;;;;;;5058978;28;20469;-59
2023/02/21 11:21:15;;;;;;;7.30;5.57;;;12.80;1.00;;;;;;5051561;28;20424;-60
2023/02/21 11:24:01;;;;;;;8.00;5.57;;;12.90;1.00;;;;;;5059311;28;20409;-59
2023/02/21 11:26:29;;;;;;;7.30;6.03;;;12.80;1.00;;;;;;5059750;28;20459;-58
2023/02/21 11:29:09;;;;;;;10.07;6.57;;;12.80;1.00;;;;;;5056261;28;20443;-59
2023/02/21 11:31:34;;;;;;;7.50;5.57;;;12.70;1.00;;;;;;5051227;28;20417;-58
2023/02/21 11:34:03;;;;;;;9.37;6.40;;;12.50;1.00;;;;;;5052968;28;20420;-59
2023/02/21 11:36:32;;;;;;;6.93;6.00;;;12.80;1.00;;;;;;5051318;28;20585;-59
2023/02/21 11:39:01;;;;;;;10.53;5.43;;;12.80;1.00;;;;;;5058249;28;20518;-59
2023/02/21 11:41:34;;;;;;;10.77;6.47;;;12.90;1.00;;;;;;5045428;28;20454;-59
2023/02/21 11:44:00;;;;;;;7.00;6.17;;;12.80;1.00;;;;;;5055531;28;20939;-59
2023/02/21 11:46:46;;;;;;;7.33;6.30;;;12.80;1.00;;;;;;5050568;28;20474;-59
2023/02/21 11:49:49;;;;;;;9.70;6.43;;;12.80;1.00;;;;;;5051726;28;20234;-59
2023/02/21 11:52:21;;;;;;;6.77;5.80;;;12.80;1.00;;;;;;5050991;28;20428;-58
2023/02/21 11:54:46;;;;;;;6.93;5.50;;;12.70;1.00;;;;;;5048386;28;20433;-58
2023/02/21 11:57:39;;;;;;;6.37;5.43;;;12.90;1.00;;;;;;5048947;28;20458;-59
2023/02/21 12:00:23;;;;;;;9.40;6.00;;;12.90;1.00;;;;;;5068458;28;20211;-58
2023/02/21 12:03:08;;;;;;;7.03;5.90;;;12.80;1.00;;;;;;5048021;28;20947;-58
2023/02/21 12:06:01;;;;;;;7.30;6.10;;;12.70;1.00;;;;;;5046069;28;21145;-59
2023/02/21 12:08:27;;;;;;;7.13;5.77;;;12.80;1.00;;;;;;5062533;28;20433;-58
2023/02/21 12:11:14;;;;;;;8.03;5.77;;;12.70;1.00;;;;;;5048598;28;20447;-59
2023/02/21 12:13:52;;;;;;;8.70;6.97;;;12.70;1.00;;;;;;5050267;28;20184;-59
2023/02/21 12:16:34;;;;;;;8.17;6.57;;;12.70;1.00;;;;;;5048644;28;20416;-60
2023/02/21 12:19:27;;;;;;;10.30;6.40;;;12.70;1.00;;;;;;5050089;28;20425;-58
2023/02/21 12:22:02;;;;;;;8.20;6.20;;;12.80;1.00;;;;;;5051244;28;20528;-60
2023/02/21 12:24:54;;;;;;;8.53;6.73;;;12.70;1.00;;;;;;5050447;28;20909;-60
2023/02/21 12:27:38;;;;;;;8.80;6.90;;;12.80;1.00;;;;;;5050511;28;20417;-58
2023/02/21 12:30:44;;;;;;;9.90;5.70;;;12.80;1.00;;;;;;5051828;28;20450;-58
2023/02/21 12:33:10;;;;;;;7.83;5.17;;;12.90;1.00;;;;;;5048931;28;20469;-58
2023/02/21 12:35:50;;;;;;;6.90;5.13;;;12.80;1.00;;;;;;5048992;28;20796;-58
2023/02/21 12:38:41;;;;;;;8.30;5.80;;;13.00;1.00;;;;;;5051830;28;20307;-59
2023/02/21 12:41:25;;;;;;;7.63;6.23;;;13.00;1.00;;;;;;5049063;28;20418;-59
2023/02/21 12:43:54;;;;;;;7.20;5.60;;;13.00;1.00;;;;;;5050949;28;21097;-57
2023/02/21 12:46:49;;;;;;;11.60;5.80;;;13.00;1.00;;;;;;5049772;28;20512;-59
2023/02/21 12:49:35;;;;;;;6.87;5.77;;;13.00;1.00;;;;;;5050440;28;20421;-58
2023/02/21 12:52:05;;;;;;;7.20;6.30;;;12.90;1.00;;;;;;5046107;28;20931;-59
2023/02/21 12:54:55;;;;;;;6.90;6.20;;;13.00;1.00;;;;;;5048113;28;20959;-61
2023/02/21 12:57:39;;;;;;;10.20;6.37;;;13.00;1.00;;;;;;5047937;28;20466;-58
2023/02/21 13:00:21;;;;;;;6.90;5.83;;;13.30;1.00;;;;;;5054162;28;20451;-59
2023/02/21 13:03:22;;;;;;;9.13;6.93;;;13.20;1.00;;;;;;5053001;28;20457;-59
2023/02/21 13:06:00;;;;;;;8.10;6.10;;;13.30;1.00;;;;;;5059312;28;20464;-60
2023/02/21 13:08:32;;;;;;;8.17;6.27;;;13.10;1.00;;;;;;5048484;28;20421;-59
2023/02/21 13:11:28;;;;;;;7.60;6.80;;;13.20;1.00;;;;;;5047617;28;20461;-59
2023/02/21 13:13:55;;;;;;;8.60;6.70;;;13.20;1.00;;;;;;5050968;28;21036;-58
2023/02/21 13:16:21;;;;;;;8.00;6.77;;;13.30;1.00;;;;;;5049042;28;20440;-59
2023/02/21 13:19:06;;;;;;;7.20;5.87;;;13.30;1.00;;;;;;5054367;28;20871;-59
2023/02/21 13:21:54;;;;;;;8.30;7.47;;;13.40;1.00;;;;;;5052127;28;20442;-60
2023/02/21 13:24:28;;;;;;;8.33;5.93;;;13.30;1.00;;;;;;5062156;28;20834;-59
2023/02/21 13:26:57;;;;;;;9.53;6.43;;;13.40;1.00;;;;;;5050477;28;20413;-59
2023/02/21 13:29:35;;;;;;;8.40;6.43;;;13.30;1.00;;;;;;5050127;28;20428;-58
2023/02/21 13:32:07;;;;;;;8.50;6.90;;;13.40;1.00;;;;;;5049396;28;20489;-59
2023/02/21 13:34:42;;;;;;;8.50;6.40;;;13.10;1.00;;;;;;5048334;28;20526;-59
2023/02/21 13:37:17;;;;;;;8.30;6.17;;;13.00;1.00;;;;;;5048523;28;20474;-59
2023/02/21 13:39:50;;;;;;;10.17;6.67;;;13.10;1.00;;;;;;5047375;28;20533;-59
2023/02/21 13:42:27;;;;;;;7.50;5.70;;;13.20;1.00;;;;;;5050470;28;20443;-59
2023/02/21 13:45:11;;;;;;;8.07;5.40;;;13.30;1.00;;;;;;5051248;28;20442;-58
2023/02/21 13:47:52;;;;;;;8.93;5.80;;;13.20;1.00;;;;;;5051296;28;20946;-59
2023/02/21 13:50:33;;;;;;;6.77;5.80;;;13.20;1.00;;;;;;5051215;28;20516;-59
2023/02/21 13:53:07;;;;;;;9.30;6.50;;;13.20;1.00;;;;;;5049883;28;20413;-58
2023/02/21 13:55:35;;;;;;;17.43;6.23;;;13.10;1.00;;;;;;5049042;28;20440;-58
2023/02/21 13:58:00;;;;;;;9.50;6.37;;;13.10;1.00;;;;;;5048649;28;20520;-59
2023/02/21 14:00:26;;;;;;;8.07;6.07;;;13.00;1.00;;;;;;5051016;28;20442;-58
2023/02/21 14:03:11;;;;;;;6.40;5.70;;;13.10;1.00;;;;;;5053566;28;20180;-60
2023/02/21 14:05:49;;;;;;;8.07;5.93;;;13.00;1.00;;;;;;5050244;28;20524;-59
2023/02/21 14:08:23;;;;;;;6.90;5.73;;;13.00;1.00;;;;;;5051829;28;20796;-58
2023/02/21 14:10:52;;;;;;;8.20;6.10;;;13.20;1.00;;;;;;5048868;28;20972;-60
2023/02/21 14:13:48;;;;;;;8.17;6.50;;;13.30;1.00;;;;;;5050831;28;20879;-58
2023/02/21 14:16:14;;;;;;;7.20;5.97;;;13.20;1.00;;;;;;5050302;28;20442;-59
2023/02/21 14:18:48;;;;;;;7.93;6.10;;;13.20;1.00;;;;;;5049595;28;20598;-58
2023/02/21 14:21:39;;;;;;;9.27;6.37;;;13.20;1.00;;;;;;5050255;28;20203;-58
2023/02/21 14:24:26;;;;;;;8.43;7.23;;;13.20;1.00;;;;;;5061340;28;21108;-58
2023/02/21 14:26:51;;;;;;;9.10;6.20;;;13.20;1.00;;;;;;5060456;28;20724;-58
2023/02/21 14:29:37;;;;;;;10.53;7.20;;;13.20;1.00;;;;;;5056661;28;20409;-58
2023/02/21 14:32:02;;;;;;;6.83;5.70;;;13.10;1.00;;;;;;5056023;28;20176;-58
2023/02/21 14:34:46;;;;;;;11.00;7.30;;;13.20;1.00;;;;;;5068660;28;20500;-58
2023/02/21 14:37:21;;;;;;;9.10;6.43;;;13.20;1.00;;;;;;5049505;28;20204;-57
2023/02/21 14:40:13;;;;;;;8.40;6.70;;;13.20;1.00;;;;;;5042545;28;20454;-57
2023/02/21 14:43:01;;;;;;;8.80;6.90;;;13.10;1.00;;;;;;5023387;28;20443;-57
2023/02/21 14:45:38;;;;;;;10.37;6.20;;;13.20;1.00;;;;;;5045559;28;20451;-57
2023/02/21 14:48:24;;;;;;;9.03;7.27;;;13.10;1.00;;;;;;5049747;28;20410;-58
2023/02/21 14:51:15;;;;;;;8.27;6.00;;;13.20;1.00;;;;;;5049239;28;20956;-57
2023/02/21 14:54:18;;;;;;;8.63;7.00;;;13.20;1.00;;;;;;5083779;27;20553;-58
2023/02/21 14:56:46;;;;;;;7.10;5.50;;;13.30;1.00;;;;;;5083502;28;20481;-57
2023/02/21 14:59:44;;;;;;;8.80;6.10;;;13.30;1.00;;;;;;5086434;28;20425;-58
2023/02/21 15:02:30;;;;;;;9.53;6.60;;;13.40;1.00;;;;;;5074846;28;20438;-57
2023/02/21 15:05:17;;;;;;;8.33;6.03;;;13.50;1.00;;;;;;5066215;28;20929;-58
2023/02/21 15:07:58;;;;;;;8.70;5.73;;;13.30;1.00;;;;;;5066151;28;20514;-58
2023/02/21 15:10:26;;;;;;;6.67;5.50;;;13.30;1.00;;;;;;5064188;28;20413;-58
2023/02/21 15:13:02;;;;;;;6.03;4.70;;;13.30;1.00;;;;;;5067519;28;20909;-58
2023/02/21 15:15:39;;;;;;;8.33;6.00;;;13.20;1.00;;;;;;5066186;28;20430;-58
2023/02/21 15:18:09;;;;;;;6.60;5.47;;;13.20;1.00;;;;;;5074134;28;20404;-58
2023/02/21 15:20:40;;;;;;;6.90;5.47;;;13.20;1.00;;;;;;5065905;28;20444;-58
2023/02/21 15:23:08;;;;;;;7.30;5.50;;;13.20;1.00;;;;;;5066474;28;20455;-57
2023/02/21 15:25:35;;;;;;;7.10;5.23;;;13.20;1.00;;;;;;5070350;28;20449;-57
2023/02/21 15:28:03;;;;;;;6.70;5.23;;;13.20;1.00;;;;;;5065847;28;21038;-57
2023/02/21 15:30:36;;;;;;;6.37;5.20;;;13.20;1.00;;;;;;5065266;28;20575;-58
2023/02/21 15:33:14;;;;;;;6.40;5.47;;;13.20;1.00;;;;;;5066338;28;20945;-58
2023/02/21 15:35:50;;;;;;;7.77;5.73;;;13.20;1.00;;;;;;5074699;28;20423;-58